首页
METAR-TAF:

METAR-TAF

机场 :

开普敦国际机场

開普敦, 南非共和國

纬度: 33-59S, 经度: 018-36E, 海拔: 42米

当前天气观测

该预报发布于59分钟前的20:00 UTC
风速11节,风向南转西南
温度 14°C
湿度 82%
气压 1030 hPa
能见度10公里或以上
1500米以下无云,无积雨云

METAR: FACT 252000Z 21011KT CAVOK 14/11 Q1030 NOSIG

时间: 22:59 (20:59 UTC)

预报

该预报发布于2小时和59分钟前的18:00 UTC
预报有效从25日的 18点(UTC)到 26日的 24点(UTC)
风速8节,风向南转西南
能见度10公里或以上
少量云层高于3000英尺
几率 40% :
短暂存在
从 25日的 21点(UTC)到 26日的 07点(UTC)
能見度: 4000
轻雾
几率 30% :
短暂存在
从 26日的 00点(UTC)到 26日的 06点(UTC)
能見度: 0600
从 26日的 2000点(UTC)
风速3节,风向多变
能见度10公里或以上
1500米以下无云,无积雨云
几率 30% :
短暂存在
从 26日的 21点(UTC)到 26日的 24点(UTC)
能見度: 3000
轻雾,

TAF: FACT 251800Z 2518/2624 20008KT 9999 FEW030 TX21/2612Z TN11/2606Z PROB40 TEMPO 2521/2607 4000 BR NSC PROB30 TEMPO 2600/2606 0600 FG NSC FM262000 VRB03KT CAVOK PROB30 TEMPO 2621/2624 3000 BR NSC

超过4000个机场的气象观测和天气预报(METAR&TAF报告)。

可查询的气象台以黄色和红色小点在地图上表示。

将鼠标移到小点上方,可查看气象台名称。

然后点击查看天气观测和预报。

如需切换地图:点击带黑十字的绿色按钮放大地图;点击带横线的绿色按钮缩小地图;或者点击绿色箭头查看邻近地区的地图。


METAR-TAF: